sensor_id;sensor_type;location;lat;lon;timestamp;P1;durP1;ratioP1;P2;durP2;ratioP2
40537;SDS011;27925;41.874;12.526;2023-05-10T00:02:25;10.88;;;6.07;;
40537;SDS011;27925;41.874;12.526;2023-05-10T00:04:51;8.25;;;5.72;;
40537;SDS011;27925;41.874;12.526;2023-05-10T00:07:17;7.93;;;5.65;;
40537;SDS011;27925;41.874;12.526;2023-05-10T00:09:43;9.85;;;5.82;;
40537;SDS011;27925;41.874;12.526;2023-05-10T00:12:09;11.73;;;7.00;;
40537;SDS011;27925;41.874;12.526;2023-05-10T00:14:34;7.95;;;5.70;;
40537;SDS011;27925;41.874;12.526;2023-05-10T00:17:00;10.95;;;6.32;;
40537;SDS011;27925;41.874;12.526;2023-05-10T00:19:26;8.25;;;5.97;;
40537;SDS011;27925;41.874;12.526;2023-05-10T00:21:51;10.30;;;6.05;;
40537;SDS011;27925;41.874;12.526;2023-05-10T00:24:17;8.55;;;5.88;;
40537;SDS011;27925;41.874;12.526;2023-05-10T00:26:43;8.65;;;6.22;;
40537;SDS011;27925;41.874;12.526;2023-05-10T00:29:08;12.85;;;5.82;;
40537;SDS011;27925;41.874;12.526;2023-05-10T00:31:34;8.15;;;5.65;;
40537;SDS011;27925;41.874;12.526;2023-05-10T00:34:00;12.30;;;6.20;;
40537;SDS011;27925;41.874;12.526;2023-05-10T00:36:25;9.93;;;5.55;;
40537;SDS011;27925;41.874;12.526;2023-05-10T00:38:52;9.02;;;6.03;;
40537;SDS011;27925;41.874;12.526;2023-05-10T00:41:18;8.43;;;5.88;;
40537;SDS011;27925;41.874;12.526;2023-05-10T00:43:43;6.50;;;4.75;;
40537;SDS011;27925;41.874;12.526;2023-05-10T00:46:09;8.55;;;6.10;;
40537;SDS011;27925;41.874;12.526;2023-05-10T00:48:35;8.95;;;6.00;;
40537;SDS011;27925;41.874;12.526;2023-05-10T00:51:01;8.02;;;5.63;;
40537;SDS011;27925;41.874;12.526;2023-05-10T00:53:27;8.48;;;5.32;;
40537;SDS011;27925;41.874;12.526;2023-05-10T00:55:55;6.80;;;5.38;;
40537;SDS011;27925;41.874;12.526;2023-05-10T00:58:21;7.00;;;5.07;;
40537;SDS011;27925;41.874;12.526;2023-05-10T01:00:48;7.18;;;5.22;;
40537;SDS011;27925;41.874;12.526;2023-05-10T01:03:15;6.97;;;5.15;;
40537;SDS011;27925;41.874;12.526;2023-05-10T01:05:42;7.57;;;5.25;;
40537;SDS011;27925;41.874;12.526;2023-05-10T01:08:07;10.55;;;5.40;;
40537;SDS011;27925;41.874;12.526;2023-05-10T01:10:33;7.57;;;5.47;;
40537;SDS011;27925;41.874;12.526;2023-05-10T01:12:59;7.80;;;5.38;;
40537;SDS011;27925;41.874;12.526;2023-05-10T01:15:25;8.18;;;5.93;;
40537;SDS011;27925;41.874;12.526;2023-05-10T01:17:51;8.93;;;5.78;;
40537;SDS011;27925;41.874;12.526;2023-05-10T01:20:18;9.80;;;5.90;;
40537;SDS011;27925;41.874;12.526;2023-05-10T01:33:56;8.30;;;6.03;;
40537;SDS011;27925;41.874;12.526;2023-05-10T01:45:11;8.52;;;6.07;;
40537;SDS011;27925;41.874;12.526;2023-05-10T01:47:17;9.90;;;6.18;;
40537;SDS011;27925;41.874;12.526;2023-05-10T01:49:54;8.65;;;6.18;;
40537;SDS011;27925;41.874;12.526;2023-05-10T01:52:30;10.75;;;6.63;;
40537;SDS011;27925;41.874;12.526;2023-05-10T01:55:02;10.43;;;6.72;;
40537;SDS011;27925;41.874;12.526;2023-05-10T01:57:35;9.63;;;6.18;;
40537;SDS011;27925;41.874;12.526;2023-05-10T02:00:03;10.90;;;6.70;;
40537;SDS011;27925;41.874;12.526;2023-05-10T02:02:30;8.77;;;6.20;;
40537;SDS011;27925;41.874;12.526;2023-05-10T02:05:01;8.20;;;5.90;;
40537;SDS011;27925;41.874;12.526;2023-05-10T02:07:30;14.68;;;6.72;;
40537;SDS011;27925;41.874;12.526;2023-05-10T02:09:58;7.85;;;6.10;;
40537;SDS011;27925;41.874;12.526;2023-05-10T02:12:24;9.25;;;6.13;;
40537;SDS011;27925;41.874;12.526;2023-05-10T02:14:50;10.85;;;6.40;;
40537;SDS011;27925;41.874;12.526;2023-05-10T02:17:17;9.50;;;6.55;;
40537;SDS011;27925;41.874;12.526;2023-05-10T02:19:44;9.15;;;7.03;;
40537;SDS011;27925;41.874;12.526;2023-05-10T02:22:11;8.18;;;6.35;;
40537;SDS011;27925;41.874;12.526;2023-05-10T02:24:37;10.95;;;6.82;;
40537;SDS011;27925;41.874;12.526;2023-05-10T02:27:04;9.38;;;6.05;;
40537;SDS011;27925;41.874;12.526;2023-05-10T02:29:31;8.93;;;6.18;;
40537;SDS011;27925;41.874;12.526;2023-05-10T02:31:58;8.70;;;6.82;;
40537;SDS011;27925;41.874;12.526;2023-05-10T02:34:25;9.13;;;6.55;;
40537;SDS011;27925;41.874;12.526;2023-05-10T02:36:52;9.00;;;6.55;;
40537;SDS011;27925;41.874;12.526;2023-05-10T02:39:19;8.30;;;6.68;;
40537;SDS011;27925;41.874;12.526;2023-05-10T02:41:46;8.88;;;7.00;;
40537;SDS011;27925;41.874;12.526;2023-05-10T02:44:14;11.15;;;6.95;;
40537;SDS011;27925;41.874;12.526;2023-05-10T02:46:42;9.00;;;6.53;;
40537;SDS011;27925;41.874;12.526;2023-05-10T02:49:08;8.30;;;5.93;;
40537;SDS011;27925;41.874;12.526;2023-05-10T02:51:35;9.45;;;6.80;;
40537;SDS011;27925;41.874;12.526;2023-05-10T02:54:12;9.98;;;6.15;;
40537;SDS011;27925;41.874;12.526;2023-05-10T02:56:46;10.95;;;6.43;;
40537;SDS011;27925;41.874;12.526;2023-05-10T02:59:15;11.93;;;7.35;;
40537;SDS011;27925;41.874;12.526;2023-05-10T03:01:41;9.00;;;7.00;;
40537;SDS011;27925;41.874;12.526;2023-05-10T03:04:07;8.30;;;6.25;;
40537;SDS011;27925;41.874;12.526;2023-05-10T03:06:32;9.80;;;6.50;;
40537;SDS011;27925;41.874;12.526;2023-05-10T03:08:58;9.35;;;6.40;;
40537;SDS011;27925;41.874;12.526;2023-05-10T03:17:10;8.30;;;6.35;;
40537;SDS011;27925;41.874;12.526;2023-05-10T03:19:58;7.90;;;5.95;;
40537;SDS011;27925;41.874;12.526;2023-05-10T03:22:31;9.13;;;5.70;;
40537;SDS011;27925;41.874;12.526;2023-05-10T03:25:00;9.15;;;6.07;;
40537;SDS011;27925;41.874;12.526;2023-05-10T03:27:31;9.18;;;6.50;;
40537;SDS011;27925;41.874;12.526;2023-05-10T03:29:57;8.20;;;6.63;;
40537;SDS011;27925;41.874;12.526;2023-05-10T03:32:23;8.68;;;6.68;;
40537;SDS011;27925;41.874;12.526;2023-05-10T03:34:49;10.15;;;6.43;;
40537;SDS011;27925;41.874;12.526;2023-05-10T03:37:15;11.63;;;7.28;;
40537;SDS011;27925;41.874;12.526;2023-05-10T03:39:41;11.50;;;7.03;;
40537;SDS011;27925;41.874;12.526;2023-05-10T03:42:06;12.07;;;7.20;;
40537;SDS011;27925;41.874;12.526;2023-05-10T03:44:32;12.63;;;7.10;;
40537;SDS011;27925;41.874;12.526;2023-05-10T03:46:58;9.60;;;6.88;;
40537;SDS011;27925;41.874;12.526;2023-05-10T03:49:24;9.15;;;7.03;;
40537;SDS011;27925;41.874;12.526;2023-05-10T03:51:50;7.95;;;6.05;;
40537;SDS011;27925;41.874;12.526;2023-05-10T03:54:15;9.45;;;5.93;;
40537;SDS011;27925;41.874;12.526;2023-05-10T03:56:41;9.30;;;5.85;;
40537;SDS011;27925;41.874;12.526;2023-05-10T03:59:07;8.27;;;5.63;;
40537;SDS011;27925;41.874;12.526;2023-05-10T04:01:34;8.98;;;5.78;;
40537;SDS011;27925;41.874;12.526;2023-05-10T04:04:00;9.65;;;6.65;;
40537;SDS011;27925;41.874;12.526;2023-05-10T04:06:25;9.30;;;5.93;;
40537;SDS011;27925;41.874;12.526;2023-05-10T04:08:51;8.68;;;6.18;;
40537;SDS011;27925;41.874;12.526;2023-05-10T04:11:17;8.23;;;6.22;;
40537;SDS011;27925;41.874;12.526;2023-05-10T04:13:42;9.25;;;6.75;;
40537;SDS011;27925;41.874;12.526;2023-05-10T04:16:08;9.45;;;6.13;;
40537;SDS011;27925;41.874;12.526;2023-05-10T04:18:34;10.13;;;6.47;;
40537;SDS011;27925;41.874;12.526;2023-05-10T04:21:00;8.80;;;7.15;;
40537;SDS011;27925;41.874;12.526;2023-05-10T04:23:26;9.32;;;6.60;;
40537;SDS011;27925;41.874;12.526;2023-05-10T04:25:52;10.30;;;6.68;;
40537;SDS011;27925;41.874;12.526;2023-05-10T04:28:23;10.48;;;7.00;;
40537;SDS011;27925;41.874;12.526;2023-05-10T04:30:49;9.75;;;6.35;;
40537;SDS011;27925;41.874;12.526;2023-05-10T04:33:15;9.02;;;6.28;;
40537;SDS011;27925;41.874;12.526;2023-05-10T04:35:40;8.93;;;7.25;;
40537;SDS011;27925;41.874;12.526;2023-05-10T04:38:06;9.88;;;6.70;;
40537;SDS011;27925;41.874;12.526;2023-05-10T04:40:32;13.98;;;7.30;;
40537;SDS011;27925;41.874;12.526;2023-05-10T04:42:57;10.88;;;6.90;;
40537;SDS011;27925;41.874;12.526;2023-05-10T04:45:23;10.85;;;7.90;;
40537;SDS011;27925;41.874;12.526;2023-05-10T04:47:49;10.43;;;7.07;;
40537;SDS011;27925;41.874;12.526;2023-05-10T04:50:14;11.75;;;7.20;;
40537;SDS011;27925;41.874;12.526;2023-05-10T04:52:40;11.00;;;6.53;;
40537;SDS011;27925;41.874;12.526;2023-05-10T04:55:06;8.48;;;7.03;;
40537;SDS011;27925;41.874;12.526;2023-05-10T04:57:34;10.82;;;6.88;;
40537;SDS011;27925;41.874;12.526;2023-05-10T05:00:00;11.82;;;7.38;;
40537;SDS011;27925;41.874;12.526;2023-05-10T23:03:19;27.33;;;5.18;;
40537;SDS011;27925;41.874;12.526;2023-05-10T23:05:45;29.88;;;7.13;;
40537;SDS011;27925;41.874;12.526;2023-05-10T23:08:11;25.67;;;5.50;;
40537;SDS011;27925;41.874;12.526;2023-05-10T23:10:37;29.70;;;6.20;;
40537;SDS011;27925;41.874;12.526;2023-05-10T23:13:03;31.30;;;5.78;;
40537;SDS011;27925;41.874;12.526;2023-05-10T23:15:29;26.38;;;5.13;;
40537;SDS011;27925;41.874;12.526;2023-05-10T23:17:57;32.95;;;5.50;;
40537;SDS011;27925;41.874;12.526;2023-05-10T23:20:25;23.52;;;5.22;;
40537;SDS011;27925;41.874;12.526;2023-05-10T23:22:51;26.92;;;5.15;;
40537;SDS011;27925;41.874;12.526;2023-05-10T23:25:17;30.20;;;6.13;;
40537;SDS011;27925;41.874;12.526;2023-05-10T23:27:43;28.98;;;5.88;;
40537;SDS011;27925;41.874;12.526;2023-05-10T23:30:09;22.27;;;4.95;;
40537;SDS011;27925;41.874;12.526;2023-05-10T23:32:35;30.45;;;5.60;;
40537;SDS011;27925;41.874;12.526;2023-05-10T23:35:01;24.77;;;5.57;;
40537;SDS011;27925;41.874;12.526;2023-05-10T23:37:26;25.77;;;5.38;;
40537;SDS011;27925;41.874;12.526;2023-05-10T23:39:52;26.38;;;5.85;;
40537;SDS011;27925;41.874;12.526;2023-05-10T23:42:18;25.58;;;5.18;;
40537;SDS011;27925;41.874;12.526;2023-05-10T23:44:44;24.58;;;5.22;;
40537;SDS011;27925;41.874;12.526;2023-05-10T23:47:10;24.95;;;5.43;;
40537;SDS011;27925;41.874;12.526;2023-05-10T23:49:36;21.30;;;5.03;;
40537;SDS011;27925;41.874;12.526;2023-05-10T23:52:02;18.50;;;5.70;;
40537;SDS011;27925;41.874;12.526;2023-05-10T23:54:28;18.77;;;4.47;;
40537;SDS011;27925;41.874;12.526;2023-05-10T23:56:53;28.75;;;5.88;;
40537;SDS011;27925;41.874;12.526;2023-05-10T23:59:19;30.45;;;5.75;;
